sensor_id;sensor_type;location;lat;lon;timestamp;P1;durP1;ratioP1;P2;durP2;ratioP2
70459;SDS011;57920;54.796;9.430;2022-10-31T00:02:03;5.93;;;4.77;;
70459;SDS011;57920;54.796;9.430;2022-10-31T00:04:29;5.60;;;4.77;;
70459;SDS011;57920;54.796;9.430;2022-10-31T00:06:54;5.00;;;4.50;;
70459;SDS011;57920;54.796;9.430;2022-10-31T00:09:20;5.40;;;4.53;;
70459;SDS011;57920;54.796;9.430;2022-10-31T00:11:46;6.53;;;4.73;;
70459;SDS011;57920;54.796;9.430;2022-10-31T00:14:11;6.83;;;4.67;;
70459;SDS011;57920;54.796;9.430;2022-10-31T00:16:37;5.50;;;4.70;;
70459;SDS011;57920;54.796;9.430;2022-10-31T00:19:03;6.33;;;4.70;;
70459;SDS011;57920;54.796;9.430;2022-10-31T00:21:31;4.87;;;4.27;;
70459;SDS011;57920;54.796;9.430;2022-10-31T00:23:57;6.17;;;4.90;;
70459;SDS011;57920;54.796;9.430;2022-10-31T00:26:24;5.83;;;4.60;;
70459;SDS011;57920;54.796;9.430;2022-10-31T00:28:51;4.07;;;3.67;;
70459;SDS011;57920;54.796;9.430;2022-10-31T00:31:16;4.83;;;4.33;;
70459;SDS011;57920;54.796;9.430;2022-10-31T00:33:42;5.10;;;4.57;;
70459;SDS011;57920;54.796;9.430;2022-10-31T00:36:10;4.80;;;4.13;;
70459;SDS011;57920;54.796;9.430;2022-10-31T00:38:44;4.10;;;3.70;;
70459;SDS011;57920;54.796;9.430;2022-10-31T00:41:11;5.00;;;4.00;;
70459;SDS011;57920;54.796;9.430;2022-10-31T00:43:37;4.10;;;3.70;;
70459;SDS011;57920;54.796;9.430;2022-10-31T00:46:03;5.13;;;4.63;;
70459;SDS011;57920;54.796;9.430;2022-10-31T00:48:32;6.93;;;4.53;;
70459;SDS011;57920;54.796;9.430;2022-10-31T00:50:57;6.10;;;4.80;;
70459;SDS011;57920;54.796;9.430;2022-10-31T00:53:23;4.43;;;3.80;;
70459;SDS011;57920;54.796;9.430;2022-10-31T00:55:49;5.27;;;4.17;;
70459;SDS011;57920;54.796;9.430;2022-10-31T00:58:14;6.73;;;4.37;;
70459;SDS011;57920;54.796;9.430;2022-10-31T01:00:42;3.87;;;3.50;;
70459;SDS011;57920;54.796;9.430;2022-10-31T01:03:08;5.43;;;4.53;;
70459;SDS011;57920;54.796;9.430;2022-10-31T01:05:34;4.53;;;4.13;;
70459;SDS011;57920;54.796;9.430;2022-10-31T01:07:59;4.63;;;3.83;;
70459;SDS011;57920;54.796;9.430;2022-10-31T01:10:25;4.77;;;4.13;;
70459;SDS011;57920;54.796;9.430;2022-10-31T01:12:50;5.57;;;3.93;;
70459;SDS011;57920;54.796;9.430;2022-10-31T01:15:20;4.00;;;3.27;;
70459;SDS011;57920;54.796;9.430;2022-10-31T01:17:50;3.60;;;3.30;;
70459;SDS011;57920;54.796;9.430;2022-10-31T01:20:16;4.90;;;4.23;;
70459;SDS011;57920;54.796;9.430;2022-10-31T01:22:42;5.53;;;3.83;;
70459;SDS011;57920;54.796;9.430;2022-10-31T01:25:08;4.10;;;3.70;;
70459;SDS011;57920;54.796;9.430;2022-10-31T01:27:34;5.93;;;4.37;;
70459;SDS011;57920;54.796;9.430;2022-10-31T01:30:00;5.17;;;4.20;;
70459;SDS011;57920;54.796;9.430;2022-10-31T01:32:26;4.20;;;3.50;;
70459;SDS011;57920;54.796;9.430;2022-10-31T01:34:53;4.77;;;4.27;;
70459;SDS011;57920;54.796;9.430;2022-10-31T01:37:19;5.77;;;4.20;;
70459;SDS011;57920;54.796;9.430;2022-10-31T01:39:45;4.70;;;4.00;;
70459;SDS011;57920;54.796;9.430;2022-10-31T01:42:16;5.17;;;4.40;;
70459;SDS011;57920;54.796;9.430;2022-10-31T01:44:48;5.33;;;4.20;;
70459;SDS011;57920;54.796;9.430;2022-10-31T01:47:23;4.00;;;3.60;;
70459;SDS011;57920;54.796;9.430;2022-10-31T01:50:20;4.50;;;3.43;;
70459;SDS011;57920;54.796;9.430;2022-10-31T01:52:55;3.97;;;3.67;;
70459;SDS011;57920;54.796;9.430;2022-10-31T01:55:23;3.37;;;3.07;;
70459;SDS011;57920;54.796;9.430;2022-10-31T01:57:54;3.87;;;3.10;;
70459;SDS011;57920;54.796;9.430;2022-10-31T02:00:22;4.23;;;3.63;;
70459;SDS011;57920;54.796;9.430;2022-10-31T02:02:48;3.80;;;3.40;;
70459;SDS011;57920;54.796;9.430;2022-10-31T02:05:18;3.30;;;3.00;;
70459;SDS011;57920;54.796;9.430;2022-10-31T02:07:55;5.57;;;3.80;;
70459;SDS011;57920;54.796;9.430;2022-10-31T02:10:29;3.30;;;3.00;;
70459;SDS011;57920;54.796;9.430;2022-10-31T02:12:57;5.27;;;4.00;;
70459;SDS011;57920;54.796;9.430;2022-10-31T02:15:24;3.80;;;3.07;;
70459;SDS011;57920;54.796;9.430;2022-10-31T02:17:50;3.43;;;3.13;;
70459;SDS011;57920;54.796;9.430;2022-10-31T02:31:20;4.00;;;3.60;;
70459;SDS011;57920;54.796;9.430;2022-10-31T02:33:52;4.23;;;3.83;;
70459;SDS011;57920;54.796;9.430;2022-10-31T02:52:29;4.70;;;3.83;;
70459;SDS011;57920;54.796;9.430;2022-10-31T02:54:57;6.53;;;3.60;;
70459;SDS011;57920;54.796;9.430;2022-10-31T02:57:27;4.93;;;4.10;;
70459;SDS011;57920;54.796;9.430;2022-10-31T02:59:58;4.40;;;3.80;;
70459;SDS011;57920;54.796;9.430;2022-10-31T03:02:37;4.27;;;3.20;;
70459;SDS011;57920;54.796;9.430;2022-10-31T03:10:11;5.23;;;3.90;;
70459;SDS011;57920;54.796;9.430;2022-10-31T03:15:28;4.67;;;3.40;;
70459;SDS011;57920;54.796;9.430;2022-10-31T03:18:02;4.50;;;3.73;;
70459;SDS011;57920;54.796;9.430;2022-10-31T03:20:50;5.53;;;3.53;;
70459;SDS011;57920;54.796;9.430;2022-10-31T03:23:20;4.43;;;3.73;;
70459;SDS011;57920;54.796;9.430;2022-10-31T03:25:49;4.37;;;3.97;;
70459;SDS011;57920;54.796;9.430;2022-10-31T03:28:18;5.13;;;3.43;;
70459;SDS011;57920;54.796;9.430;2022-10-31T03:30:48;6.33;;;3.50;;
70459;SDS011;57920;54.796;9.430;2022-10-31T03:33:17;4.47;;;3.40;;
70459;SDS011;57920;54.796;9.430;2022-10-31T03:35:47;4.90;;;3.90;;
70459;SDS011;57920;54.796;9.430;2022-10-31T03:38:15;4.30;;;3.40;;
70459;SDS011;57920;54.796;9.430;2022-10-31T03:40:41;5.80;;;4.33;;
70459;SDS011;57920;54.796;9.430;2022-10-31T03:43:12;3.90;;;3.27;;
70459;SDS011;57920;54.796;9.430;2022-10-31T03:45:44;3.93;;;3.30;;
70459;SDS011;57920;54.796;9.430;2022-10-31T03:48:12;4.40;;;3.50;;
70459;SDS011;57920;54.796;9.430;2022-10-31T03:50:49;3.83;;;3.23;;
70459;SDS011;57920;54.796;9.430;2022-10-31T03:53:40;3.33;;;3.03;;
70459;SDS011;57920;54.796;9.430;2022-10-31T03:56:19;5.57;;;3.83;;
70459;SDS011;57920;54.796;9.430;2022-10-31T03:58:55;4.30;;;3.27;;
70459;SDS011;57920;54.796;9.430;2022-10-31T04:01:26;3.37;;;3.07;;
70459;SDS011;57920;54.796;9.430;2022-10-31T04:03:56;3.97;;;3.37;;
70459;SDS011;57920;54.796;9.430;2022-10-31T04:06:22;3.97;;;3.57;;
70459;SDS011;57920;54.796;9.430;2022-10-31T04:08:54;4.83;;;3.73;;
70459;SDS011;57920;54.796;9.430;2022-10-31T04:11:31;4.97;;;3.40;;
70459;SDS011;57920;54.796;9.430;2022-10-31T04:14:00;4.40;;;3.70;;
70459;SDS011;57920;54.796;9.430;2022-10-31T04:16:27;4.03;;;3.63;;
70459;SDS011;57920;54.796;9.430;2022-10-31T04:18:53;3.87;;;3.40;;
70459;SDS011;57920;54.796;9.430;2022-10-31T04:21:19;3.80;;;3.43;;
70459;SDS011;57920;54.796;9.430;2022-10-31T04:23:51;3.73;;;3.10;;
70459;SDS011;57920;54.796;9.430;2022-10-31T04:26:16;4.83;;;3.67;;
70459;SDS011;57920;54.796;9.430;2022-10-31T04:28:42;3.90;;;3.47;;
70459;SDS011;57920;54.796;9.430;2022-10-31T04:31:08;4.37;;;3.13;;
70459;SDS011;57920;54.796;9.430;2022-10-31T04:33:35;4.07;;;3.37;;
70459;SDS011;57920;54.796;9.430;2022-10-31T04:36:01;3.80;;;3.33;;
70459;SDS011;57920;54.796;9.430;2022-10-31T04:38:27;3.70;;;3.37;;
70459;SDS011;57920;54.796;9.430;2022-10-31T04:40:52;3.53;;;3.20;;
70459;SDS011;57920;54.796;9.430;2022-10-31T04:43:18;3.47;;;2.60;;
70459;SDS011;57920;54.796;9.430;2022-10-31T04:45:43;4.37;;;3.03;;
70459;SDS011;57920;54.796;9.430;2022-10-31T04:48:09;4.27;;;3.07;;
70459;SDS011;57920;54.796;9.430;2022-10-31T04:50:34;3.90;;;3.03;;
70459;SDS011;57920;54.796;9.430;2022-10-31T04:53:00;3.87;;;2.90;;
70459;SDS011;57920;54.796;9.430;2022-10-31T04:55:26;3.67;;;3.10;;
70459;SDS011;57920;54.796;9.430;2022-10-31T04:57:51;4.47;;;3.00;;
70459;SDS011;57920;54.796;9.430;2022-10-31T05:00:18;4.30;;;3.20;;
70459;SDS011;57920;54.796;9.430;2022-10-31T05:02:45;4.03;;;3.27;;
70459;SDS011;57920;54.796;9.430;2022-10-31T05:05:15;3.27;;;2.97;;
70459;SDS011;57920;54.796;9.430;2022-10-31T05:07:42;3.43;;;2.90;;
70459;SDS011;57920;54.796;9.430;2022-10-31T05:10:09;3.40;;;3.10;;
70459;SDS011;57920;54.796;9.430;2022-10-31T05:12:36;4.33;;;3.33;;
70459;SDS011;57920;54.796;9.430;2022-10-31T05:15:02;3.10;;;2.80;;
70459;SDS011;57920;54.796;9.430;2022-10-31T05:17:31;4.00;;;2.87;;
70459;SDS011;57920;54.796;9.430;2022-10-31T05:19:57;3.40;;;2.53;;
70459;SDS011;57920;54.796;9.430;2022-10-31T05:22:22;3.10;;;2.53;;
70459;SDS011;57920;54.796;9.430;2022-10-31T05:24:48;4.60;;;2.53;;
70459;SDS011;57920;54.796;9.430;2022-10-31T05:27:13;3.53;;;2.67;;
70459;SDS011;57920;54.796;9.430;2022-10-31T05:29:39;3.77;;;2.70;;
70459;SDS011;57920;54.796;9.430;2022-10-31T05:32:04;4.27;;;2.60;;
70459;SDS011;57920;54.796;9.430;2022-10-31T05:34:30;3.63;;;2.80;;
70459;SDS011;57920;54.796;9.430;2022-10-31T05:36:55;3.53;;;2.30;;
70459;SDS011;57920;54.796;9.430;2022-10-31T05:39:21;2.97;;;2.67;;
70459;SDS011;57920;54.796;9.430;2022-10-31T05:41:47;4.27;;;2.73;;
70459;SDS011;57920;54.796;9.430;2022-10-31T05:44:12;3.33;;;2.03;;
70459;SDS011;57920;54.796;9.430;2022-10-31T05:46:38;3.53;;;2.80;;
70459;SDS011;57920;54.796;9.430;2022-10-31T05:49:03;3.17;;;2.37;;
70459;SDS011;57920;54.796;9.430;2022-10-31T05:51:29;2.83;;;2.50;;
70459;SDS011;57920;54.796;9.430;2022-10-31T05:53:54;2.80;;;2.47;;
70459;SDS011;57920;54.796;9.430;2022-10-31T05:56:20;3.10;;;2.30;;
70459;SDS011;57920;54.796;9.430;2022-10-31T05:58:45;2.37;;;2.20;;
70459;SDS011;57920;54.796;9.430;2022-10-31T06:01:11;2.70;;;2.43;;
70459;SDS011;57920;54.796;9.430;2022-10-31T06:03:36;2.60;;;2.40;;
70459;SDS011;57920;54.796;9.430;2022-10-31T06:06:02;4.03;;;2.90;;
70459;SDS011;57920;54.796;9.430;2022-10-31T06:08:30;2.97;;;2.67;;
70459;SDS011;57920;54.796;9.430;2022-10-31T06:10:56;2.37;;;2.17;;
70459;SDS011;57920;54.796;9.430;2022-10-31T06:13:21;2.90;;;2.23;;
70459;SDS011;57920;54.796;9.430;2022-10-31T06:15:47;4.07;;;2.30;;
70459;SDS011;57920;54.796;9.430;2022-10-31T06:18:13;2.93;;;2.20;;
70459;SDS011;57920;54.796;9.430;2022-10-31T06:20:38;3.73;;;2.63;;
70459;SDS011;57920;54.796;9.430;2022-10-31T06:23:04;2.23;;;2.03;;
70459;SDS011;57920;54.796;9.430;2022-10-31T06:25:29;2.67;;;2.30;;
70459;SDS011;57920;54.796;9.430;2022-10-31T06:27:55;2.10;;;1.80;;
70459;SDS011;57920;54.796;9.430;2022-10-31T06:30:21;2.30;;;2.10;;
70459;SDS011;57920;54.796;9.430;2022-10-31T06:32:47;1.90;;;1.80;;
70459;SDS011;57920;54.796;9.430;2022-10-31T06:35:12;2.10;;;1.90;;
70459;SDS011;57920;54.796;9.430;2022-10-31T06:37:38;2.67;;;1.93;;
70459;SDS011;57920;54.796;9.430;2022-10-31T06:40:04;2.37;;;2.17;;
70459;SDS011;57920;54.796;9.430;2022-10-31T06:42:30;1.80;;;1.70;;
70459;SDS011;57920;54.796;9.430;2022-10-31T06:44:55;2.40;;;2.20;;
70459;SDS011;57920;54.796;9.430;2022-10-31T06:47:21;2.27;;;2.07;;
70459;SDS011;57920;54.796;9.430;2022-10-31T06:49:46;2.03;;;1.60;;
70459;SDS011;57920;54.796;9.430;2022-10-31T06:52:12;2.23;;;1.63;;
70459;SDS011;57920;54.796;9.430;2022-10-31T06:54:37;2.33;;;1.80;;
70459;SDS011;57920;54.796;9.430;2022-10-31T06:57:03;2.27;;;2.07;;
70459;SDS011;57920;54.796;9.430;2022-10-31T06:59:28;1.47;;;1.17;;
70459;SDS011;57920;54.796;9.430;2022-10-31T07:01:54;4.43;;;2.30;;
70459;SDS011;57920;54.796;9.430;2022-10-31T07:04:20;2.10;;;1.90;;
70459;SDS011;57920;54.796;9.430;2022-10-31T07:06:47;2.00;;;1.87;;
70459;SDS011;57920;54.796;9.430;2022-10-31T07:09:16;2.00;;;1.80;;
70459;SDS011;57920;54.796;9.430;2022-10-31T07:11:41;1.90;;;1.43;;
70459;SDS011;57920;54.796;9.430;2022-10-31T07:14:07;3.13;;;1.80;;
70459;SDS011;57920;54.796;9.430;2022-10-31T07:16:32;1.80;;;1.67;;
70459;SDS011;57920;54.796;9.430;2022-10-31T07:18:58;4.00;;;1.70;;
70459;SDS011;57920;54.796;9.430;2022-10-31T07:21:24;5.77;;;1.67;;
70459;SDS011;57920;54.796;9.430;2022-10-31T07:23:49;1.70;;;1.47;;
70459;SDS011;57920;54.796;9.430;2022-10-31T07:26:15;3.50;;;1.73;;
70459;SDS011;57920;54.796;9.430;2022-10-31T07:28:40;2.23;;;1.37;;
70459;SDS011;57920;54.796;9.430;2022-10-31T07:31:06;2.03;;;1.40;;
70459;SDS011;57920;54.796;9.430;2022-10-31T07:33:31;2.83;;;1.80;;
70459;SDS011;57920;54.796;9.430;2022-10-31T07:35:57;1.90;;;1.80;;
70459;SDS011;57920;54.796;9.430;2022-10-31T07:38:22;1.80;;;1.50;;
70459;SDS011;57920;54.796;9.430;2022-10-31T07:40:51;2.30;;;1.60;;
70459;SDS011;57920;54.796;9.430;2022-10-31T07:43:17;1.77;;;1.40;;
70459;SDS011;57920;54.796;9.430;2022-10-31T07:45:43;1.83;;;1.60;;
70459;SDS011;57920;54.796;9.430;2022-10-31T07:48:13;1.53;;;1.43;;
70459;SDS011;57920;54.796;9.430;2022-10-31T07:50:39;1.53;;;1.10;;
70459;SDS011;57920;54.796;9.430;2022-10-31T07:53:09;2.23;;;1.50;;
70459;SDS011;57920;54.796;9.430;2022-10-31T07:55:35;2.73;;;1.67;;
70459;SDS011;57920;54.796;9.430;2022-10-31T08:00:29;2.20;;;1.80;;
70459;SDS011;57920;54.796;9.430;2022-10-31T08:03:06;2.13;;;1.40;;
70459;SDS011;57920;54.796;9.430;2022-10-31T08:05:33;1.93;;;1.27;;
70459;SDS011;57920;54.796;9.430;2022-10-31T08:08:00;2.40;;;1.77;;
70459;SDS011;57920;54.796;9.430;2022-10-31T08:10:26;1.90;;;1.47;;
70459;SDS011;57920;54.796;9.430;2022-10-31T08:13:11;1.67;;;1.57;;
70459;SDS011;57920;54.796;9.430;2022-10-31T08:15:38;1.60;;;1.50;;
70459;SDS011;57920;54.796;9.430;2022-10-31T08:18:06;1.73;;;1.40;;
70459;SDS011;57920;54.796;9.430;2022-10-31T08:20:38;1.20;;;1.10;;
70459;SDS011;57920;54.796;9.430;2022-10-31T08:23:04;2.27;;;1.63;;
70459;SDS011;57920;54.796;9.430;2022-10-31T08:25:31;1.20;;;1.10;;
70459;SDS011;57920;54.796;9.430;2022-10-31T08:27:58;1.63;;;1.30;;
70459;SDS011;57920;54.796;9.430;2022-10-31T08:30:25;1.47;;;1.33;;
70459;SDS011;57920;54.796;9.430;2022-10-31T08:33:00;2.20;;;1.30;;
70459;SDS011;57920;54.796;9.430;2022-10-31T08:35:27;1.90;;;1.57;;
70459;SDS011;57920;54.796;9.430;2022-10-31T08:37:53;1.87;;;1.63;;
70459;SDS011;57920;54.796;9.430;2022-10-31T08:40:22;1.13;;;1.03;;
70459;SDS011;57920;54.796;9.430;2022-10-31T08:42:56;1.40;;;1.30;;
70459;SDS011;57920;54.796;9.430;2022-10-31T08:45:26;1.70;;;1.20;;
70459;SDS011;57920;54.796;9.430;2022-10-31T08:47:56;1.10;;;1.00;;
70459;SDS011;57920;54.796;9.430;2022-10-31T08:50:26;1.50;;;1.40;;
70459;SDS011;57920;54.796;9.430;2022-10-31T08:52:53;1.43;;;1.30;;
70459;SDS011;57920;54.796;9.430;2022-10-31T08:55:19;1.30;;;1.20;;
70459;SDS011;57920;54.796;9.430;2022-10-31T08:57:44;1.97;;;1.60;;
70459;SDS011;57920;54.796;9.430;2022-10-31T09:00:10;1.33;;;1.10;;
70459;SDS011;57920;54.796;9.430;2022-10-31T09:02:36;1.60;;;1.30;;
70459;SDS011;57920;54.796;9.430;2022-10-31T09:05:03;1.60;;;1.30;;
70459;SDS011;57920;54.796;9.430;2022-10-31T09:07:29;1.27;;;1.17;;
70459;SDS011;57920;54.796;9.430;2022-10-31T09:09:55;1.50;;;1.33;;
70459;SDS011;57920;54.796;9.430;2022-10-31T09:12:21;1.20;;;1.10;;
70459;SDS011;57920;54.796;9.430;2022-10-31T09:14:48;1.30;;;1.20;;
70459;SDS011;57920;54.796;9.430;2022-10-31T09:17:14;2.20;;;1.60;;
70459;SDS011;57920;54.796;9.430;2022-10-31T09:19:39;1.83;;;1.10;;
70459;SDS011;57920;54.796;9.430;2022-10-31T09:22:05;1.20;;;1.10;;
70459;SDS011;57920;54.796;9.430;2022-10-31T09:24:30;1.43;;;1.33;;
70459;SDS011;57920;54.796;9.430;2022-10-31T09:26:57;2.43;;;1.50;;
70459;SDS011;57920;54.796;9.430;2022-10-31T09:29:23;1.63;;;1.40;;
70459;SDS011;57920;54.796;9.430;2022-10-31T09:31:49;1.50;;;1.13;;
70459;SDS011;57920;54.796;9.430;2022-10-31T09:34:14;1.60;;;1.40;;
70459;SDS011;57920;54.796;9.430;2022-10-31T09:36:40;1.37;;;1.27;;
70459;SDS011;57920;54.796;9.430;2022-10-31T09:39:05;1.23;;;1.13;;
70459;SDS011;57920;54.796;9.430;2022-10-31T09:44:37;1.23;;;1.10;;
70459;SDS011;57920;54.796;9.430;2022-10-31T09:50:31;1.20;;;1.07;;
70459;SDS011;57920;54.796;9.430;2022-10-31T09:53:08;1.73;;;1.23;;
70459;SDS011;57920;54.796;9.430;2022-10-31T09:55:40;2.63;;;1.23;;
70459;SDS011;57920;54.796;9.430;2022-10-31T09:58:16;1.40;;;1.10;;
70459;SDS011;57920;54.796;9.430;2022-10-31T10:00:45;1.67;;;1.10;;
70459;SDS011;57920;54.796;9.430;2022-10-31T10:05:52;1.10;;;0.90;;
70459;SDS011;57920;54.796;9.430;2022-10-31T10:08:23;1.70;;;1.07;;
70459;SDS011;57920;54.796;9.430;2022-10-31T10:10:58;1.83;;;1.20;;
70459;SDS011;57920;54.796;9.430;2022-10-31T10:13:52;1.20;;;0.87;;
70459;SDS011;57920;54.796;9.430;2022-10-31T10:25:37;1.80;;;1.27;;
70459;SDS011;57920;54.796;9.430;2022-10-31T10:27:52;1.13;;;1.07;;
70459;SDS011;57920;54.796;9.430;2022-10-31T10:33:09;2.13;;;1.20;;
70459;SDS011;57920;54.796;9.430;2022-10-31T10:35:59;1.53;;;1.20;;
70459;SDS011;57920;54.796;9.430;2022-10-31T10:38:31;1.63;;;1.17;;
70459;SDS011;57920;54.796;9.430;2022-10-31T10:41:04;0.80;;;0.80;;
70459;SDS011;57920;54.796;9.430;2022-10-31T10:43:35;0.90;;;0.80;;
70459;SDS011;57920;54.796;9.430;2022-10-31T10:46:12;2.80;;;1.30;;
70459;SDS011;57920;54.796;9.430;2022-10-31T10:49:19;1.63;;;1.20;;
70459;SDS011;57920;54.796;9.430;2022-10-31T10:51:58;1.30;;;1.20;;
70459;SDS011;57920;54.796;9.430;2022-10-31T10:55:36;1.80;;;1.13;;
70459;SDS011;57920;54.796;9.430;2022-10-31T11:00:14;1.30;;;0.90;;
70459;SDS011;57920;54.796;9.430;2022-10-31T11:02:48;1.20;;;1.10;;
70459;SDS011;57920;54.796;9.430;2022-10-31T11:05:24;2.07;;;1.63;;
70459;SDS011;57920;54.796;9.430;2022-10-31T11:07:59;1.60;;;1.30;;
70459;SDS011;57920;54.796;9.430;2022-10-31T11:10:25;2.90;;;1.27;;
70459;SDS011;57920;54.796;9.430;2022-10-31T11:15:36;1.57;;;1.20;;
70459;SDS011;57920;54.796;9.430;2022-10-31T11:18:22;1.80;;;1.20;;
70459;SDS011;57920;54.796;9.430;2022-10-31T11:20:54;1.63;;;1.00;;
70459;SDS011;57920;54.796;9.430;2022-10-31T11:23:22;1.43;;;1.00;;
70459;SDS011;57920;54.796;9.430;2022-10-31T11:25:56;1.63;;;1.00;;
70459;SDS011;57920;54.796;9.430;2022-10-31T11:28:22;2.20;;;1.17;;
70459;SDS011;57920;54.796;9.430;2022-10-31T11:35:58;2.30;;;1.20;;
70459;SDS011;57920;54.796;9.430;2022-10-31T11:38:32;1.57;;;1.00;;
70459;SDS011;57920;54.796;9.430;2022-10-31T11:41:04;3.07;;;1.53;;
70459;SDS011;57920;54.796;9.430;2022-10-31T11:43:35;1.07;;;1.00;;
70459;SDS011;57920;54.796;9.430;2022-10-31T11:46:08;1.50;;;1.20;;
70459;SDS011;57920;54.796;9.430;2022-10-31T11:48:35;1.33;;;1.20;;
70459;SDS011;57920;54.796;9.430;2022-10-31T11:51:01;1.97;;;1.20;;
70459;SDS011;57920;54.796;9.430;2022-10-31T11:53:30;1.13;;;1.03;;
70459;SDS011;57920;54.796;9.430;2022-10-31T11:56:09;2.37;;;1.00;;
70459;SDS011;57920;54.796;9.430;2022-10-31T11:58:37;1.33;;;1.20;;
70459;SDS011;57920;54.796;9.430;2022-10-31T12:01:03;1.70;;;1.40;;
70459;SDS011;57920;54.796;9.430;2022-10-31T12:03:51;2.73;;;1.20;;
70459;SDS011;57920;54.796;9.430;2022-10-31T12:06:28;2.50;;;0.93;;
70459;SDS011;57920;54.796;9.430;2022-10-31T12:08:59;2.20;;;1.20;;
70459;SDS011;57920;54.796;9.430;2022-10-31T12:11:31;2.73;;;1.17;;
70459;SDS011;57920;54.796;9.430;2022-10-31T12:15:09;2.20;;;0.90;;
70459;SDS011;57920;54.796;9.430;2022-10-31T12:30:27;1.97;;;1.20;;
70459;SDS011;57920;54.796;9.430;2022-10-31T12:36:07;2.40;;;1.10;;
70459;SDS011;57920;54.796;9.430;2022-10-31T12:38:52;2.90;;;0.87;;
70459;SDS011;57920;54.796;9.430;2022-10-31T12:41:44;1.80;;;1.20;;
70459;SDS011;57920;54.796;9.430;2022-10-31T12:47:00;2.83;;;1.37;;
70459;SDS011;57920;54.796;9.430;2022-10-31T12:58:06;1.30;;;1.20;;
70459;SDS011;57920;54.796;9.430;2022-10-31T13:00:36;1.77;;;1.20;;
70459;SDS011;57920;54.796;9.430;2022-10-31T13:05:37;1.83;;;0.90;;
70459;SDS011;57920;54.796;9.430;2022-10-31T13:08:11;1.83;;;1.30;;
70459;SDS011;57920;54.796;9.430;2022-10-31T13:13:33;1.57;;;0.97;;
70459;SDS011;57920;54.796;9.430;2022-10-31T13:16:22;2.70;;;1.10;;
70459;SDS011;57920;54.796;9.430;2022-10-31T13:19:00;2.60;;;1.57;;
70459;SDS011;57920;54.796;9.430;2022-10-31T13:21:55;1.77;;;0.97;;
70459;SDS011;57920;54.796;9.430;2022-10-31T13:24:52;1.97;;;1.10;;
70459;SDS011;57920;54.796;9.430;2022-10-31T13:27:30;0.87;;;0.80;;
70459;SDS011;57920;54.796;9.430;2022-10-31T13:30:17;1.73;;;1.10;;
70459;SDS011;57920;54.796;9.430;2022-10-31T13:35:25;1.93;;;1.10;;
70459;SDS011;57920;54.796;9.430;2022-10-31T13:44:01;2.37;;;1.23;;
70459;SDS011;57920;54.796;9.430;2022-10-31T13:46:37;4.17;;;1.27;;
70459;SDS011;57920;54.796;9.430;2022-10-31T13:49:21;1.23;;;0.93;;
70459;SDS011;57920;54.796;9.430;2022-10-31T13:51:51;1.17;;;1.00;;
70459;SDS011;57920;54.796;9.430;2022-10-31T13:57:00;1.40;;;1.30;;
70459;SDS011;57920;54.796;9.430;2022-10-31T13:59:27;3.10;;;1.20;;
70459;SDS011;57920;54.796;9.430;2022-10-31T14:01:56;2.17;;;0.90;;
70459;SDS011;57920;54.796;9.430;2022-10-31T14:04:32;1.47;;;1.20;;
70459;SDS011;57920;54.796;9.430;2022-10-31T14:07:07;1.70;;;1.40;;
70459;SDS011;57920;54.796;9.430;2022-10-31T14:12:44;1.20;;;1.00;;
70459;SDS011;57920;54.796;9.430;2022-10-31T14:20:22;1.53;;;1.17;;
70459;SDS011;57920;54.796;9.430;2022-10-31T14:24:01;1.20;;;1.10;;
70459;SDS011;57920;54.796;9.430;2022-10-31T14:28:46;1.20;;;1.07;;
70459;SDS011;57920;54.796;9.430;2022-10-31T14:51:00;1.63;;;1.03;;
70459;SDS011;57920;54.796;9.430;2022-10-31T14:53:29;2.13;;;1.47;;
70459;SDS011;57920;54.796;9.430;2022-10-31T14:55:58;2.83;;;1.47;;
70459;SDS011;57920;54.796;9.430;2022-10-31T15:00:58;1.83;;;1.13;;
70459;SDS011;57920;54.796;9.430;2022-10-31T15:03:26;1.50;;;1.10;;
70459;SDS011;57920;54.796;9.430;2022-10-31T15:05:59;1.30;;;0.97;;
70459;SDS011;57920;54.796;9.430;2022-10-31T15:11:10;2.13;;;1.10;;
70459;SDS011;57920;54.796;9.430;2022-10-31T15:13:55;2.03;;;1.40;;
70459;SDS011;57920;54.796;9.430;2022-10-31T15:16:32;1.20;;;1.00;;
70459;SDS011;57920;54.796;9.430;2022-10-31T15:19:04;3.93;;;1.40;;
70459;SDS011;57920;54.796;9.430;2022-10-31T15:21:32;3.07;;;1.40;;
70459;SDS011;57920;54.796;9.430;2022-10-31T15:24:00;1.90;;;1.30;;
70459;SDS011;57920;54.796;9.430;2022-10-31T15:26:35;1.50;;;1.10;;
70459;SDS011;57920;54.796;9.430;2022-10-31T15:29:10;2.47;;;1.30;;
70459;SDS011;57920;54.796;9.430;2022-10-31T15:31:38;1.97;;;1.60;;
70459;SDS011;57920;54.796;9.430;2022-10-31T15:34:11;2.83;;;1.30;;
70459;SDS011;57920;54.796;9.430;2022-10-31T15:36:47;2.13;;;1.40;;
70459;SDS011;57920;54.796;9.430;2022-10-31T15:39:13;1.87;;;1.50;;
70459;SDS011;57920;54.796;9.430;2022-10-31T15:41:47;2.83;;;1.40;;
70459;SDS011;57920;54.796;9.430;2022-10-31T15:47:04;2.00;;;1.70;;
70459;SDS011;57920;54.796;9.430;2022-10-31T15:49:33;1.93;;;1.23;;
70459;SDS011;57920;54.796;9.430;2022-10-31T15:52:10;1.93;;;1.63;;
70459;SDS011;57920;54.796;9.430;2022-10-31T15:54:42;2.60;;;1.80;;
70459;SDS011;57920;54.796;9.430;2022-10-31T15:57:12;2.67;;;1.57;;
70459;SDS011;57920;54.796;9.430;2022-10-31T15:59:38;3.07;;;1.50;;
70459;SDS011;57920;54.796;9.430;2022-10-31T16:02:09;2.00;;;1.50;;
70459;SDS011;57920;54.796;9.430;2022-10-31T16:04:36;3.33;;;1.60;;
70459;SDS011;57920;54.796;9.430;2022-10-31T16:07:11;3.47;;;1.93;;
70459;SDS011;57920;54.796;9.430;2022-10-31T16:09:48;1.80;;;1.57;;
70459;SDS011;57920;54.796;9.430;2022-10-31T16:12:15;2.43;;;1.90;;
70459;SDS011;57920;54.796;9.430;2022-10-31T16:14:41;2.70;;;2.10;;
70459;SDS011;57920;54.796;9.430;2022-10-31T16:17:11;4.60;;;2.50;;
70459;SDS011;57920;54.796;9.430;2022-10-31T16:19:43;4.23;;;2.10;;
70459;SDS011;57920;54.796;9.430;2022-10-31T16:22:12;3.07;;;1.87;;
70459;SDS011;57920;54.796;9.430;2022-10-31T16:24:52;2.70;;;2.43;;
70459;SDS011;57920;54.796;9.430;2022-10-31T16:27:28;4.30;;;2.13;;
70459;SDS011;57920;54.796;9.430;2022-10-31T16:29:56;4.20;;;2.30;;
70459;SDS011;57920;54.796;9.430;2022-10-31T16:33:19;3.80;;;2.53;;
70459;SDS011;57920;54.796;9.430;2022-10-31T16:37:56;2.23;;;1.70;;
70459;SDS011;57920;54.796;9.430;2022-10-31T16:40:22;4.50;;;2.30;;
70459;SDS011;57920;54.796;9.430;2022-10-31T16:42:48;4.03;;;2.30;;
70459;SDS011;57920;54.796;9.430;2022-10-31T16:45:21;3.60;;;2.30;;
70459;SDS011;57920;54.796;9.430;2022-10-31T16:47:48;3.50;;;2.30;;
70459;SDS011;57920;54.796;9.430;2022-10-31T16:50:16;3.00;;;2.50;;
70459;SDS011;57920;54.796;9.430;2022-10-31T16:52:49;3.43;;;2.87;;
70459;SDS011;57920;54.796;9.430;2022-10-31T16:55:15;3.00;;;2.70;;
70459;SDS011;57920;54.796;9.430;2022-10-31T16:57:44;3.17;;;2.67;;
70459;SDS011;57920;54.796;9.430;2022-10-31T17:00:18;4.93;;;2.93;;
70459;SDS011;57920;54.796;9.430;2022-10-31T17:02:46;3.80;;;3.10;;
70459;SDS011;57920;54.796;9.430;2022-10-31T17:05:14;5.60;;;2.90;;
70459;SDS011;57920;54.796;9.430;2022-10-31T17:07:41;4.20;;;3.00;;
70459;SDS011;57920;54.796;9.430;2022-10-31T17:10:06;4.87;;;3.47;;
70459;SDS011;57920;54.796;9.430;2022-10-31T17:12:33;3.30;;;2.87;;
70459;SDS011;57920;54.796;9.430;2022-10-31T17:14:59;5.43;;;3.07;;
70459;SDS011;57920;54.796;9.430;2022-10-31T17:17:25;3.10;;;2.73;;
70459;SDS011;57920;54.796;9.430;2022-10-31T17:19:51;5.20;;;3.00;;
70459;SDS011;57920;54.796;9.430;2022-10-31T17:22:17;4.27;;;3.13;;
70459;SDS011;57920;54.796;9.430;2022-10-31T17:24:42;3.90;;;2.50;;
70459;SDS011;57920;54.796;9.430;2022-10-31T17:27:08;5.17;;;3.63;;
70459;SDS011;57920;54.796;9.430;2022-10-31T17:29:34;5.40;;;3.33;;
70459;SDS011;57920;54.796;9.430;2022-10-31T17:32:00;3.53;;;2.97;;
70459;SDS011;57920;54.796;9.430;2022-10-31T17:34:27;3.93;;;3.17;;
70459;SDS011;57920;54.796;9.430;2022-10-31T17:36:53;4.90;;;3.40;;
70459;SDS011;57920;54.796;9.430;2022-10-31T17:39:19;5.57;;;3.10;;